sensor_id;sensor_type;location;lat;lon;timestamp;P1;durP1;ratioP1;P2;durP2;ratioP2
34573;SDS011;20809;49.594;8.734;2023-07-20T00:04:52;2.85;;;1.65;;
34573;SDS011;20809;49.594;8.734;2023-07-20T00:07:54;4.32;;;1.40;;
34573;SDS011;20809;49.594;8.734;2023-07-20T00:10:57;3.45;;;1.70;;
34573;SDS011;20809;49.594;8.734;2023-07-20T00:13:59;5.30;;;1.50;;
34573;SDS011;20809;49.594;8.734;2023-07-20T00:17:02;6.45;;;1.50;;
34573;SDS011;20809;49.594;8.734;2023-07-20T00:20:04;2.55;;;1.40;;
34573;SDS011;20809;49.594;8.734;2023-07-20T00:23:06;2.50;;;1.20;;
34573;SDS011;20809;49.594;8.734;2023-07-20T00:26:08;3.25;;;1.30;;
34573;SDS011;20809;49.594;8.734;2023-07-20T00:29:13;3.95;;;1.50;;
34573;SDS011;20809;49.594;8.734;2023-07-20T00:32:15;2.67;;;1.85;;
34573;SDS011;20809;49.594;8.734;2023-07-20T00:35:17;4.70;;;1.70;;
34573;SDS011;20809;49.594;8.734;2023-07-20T00:38:18;5.07;;;1.83;;
34573;SDS011;20809;49.594;8.734;2023-07-20T00:41:21;2.60;;;1.50;;
34573;SDS011;20809;49.594;8.734;2023-07-20T00:44:22;3.80;;;1.60;;
34573;SDS011;20809;49.594;8.734;2023-07-20T00:47:24;2.10;;;1.27;;
34573;SDS011;20809;49.594;8.734;2023-07-20T00:50:26;3.15;;;1.90;;
34573;SDS011;20809;49.594;8.734;2023-07-20T00:53:29;2.92;;;1.50;;
34573;SDS011;20809;49.594;8.734;2023-07-20T00:56:31;2.15;;;1.55;;
34573;SDS011;20809;49.594;8.734;2023-07-20T00:59:37;4.78;;;1.83;;
34573;SDS011;20809;49.594;8.734;2023-07-20T01:02:39;1.90;;;1.67;;
34573;SDS011;20809;49.594;8.734;2023-07-20T01:06:17;2.13;;;1.40;;
34573;SDS011;20809;49.594;8.734;2023-07-20T01:09:44;1.70;;;1.60;;
34573;SDS011;20809;49.594;8.734;2023-07-20T01:13:07;4.13;;;1.48;;
34573;SDS011;20809;49.594;8.734;2023-07-20T01:16:14;3.40;;;1.50;;
34573;SDS011;20809;49.594;8.734;2023-07-20T01:19:15;5.53;;;1.75;;
34573;SDS011;20809;49.594;8.734;2023-07-20T01:22:43;2.47;;;1.50;;
34573;SDS011;20809;49.594;8.734;2023-07-20T01:26:19;4.22;;;1.60;;
34573;SDS011;20809;49.594;8.734;2023-07-20T01:29:55;3.95;;;1.35;;
34573;SDS011;20809;49.594;8.734;2023-07-20T01:33:10;5.45;;;1.60;;
34573;SDS011;20809;49.594;8.734;2023-07-20T01:36:16;3.65;;;1.65;;
34573;SDS011;20809;49.594;8.734;2023-07-20T01:39:20;3.30;;;1.80;;
34573;SDS011;20809;49.594;8.734;2023-07-20T01:42:22;1.85;;;1.67;;
34573;SDS011;20809;49.594;8.734;2023-07-20T01:45:24;2.67;;;1.60;;
34573;SDS011;20809;49.594;8.734;2023-07-20T01:48:27;2.15;;;1.65;;
34573;SDS011;20809;49.594;8.734;2023-07-20T01:51:28;3.42;;;1.88;;
34573;SDS011;20809;49.594;8.734;2023-07-20T01:54:30;2.58;;;1.48;;
34573;SDS011;20809;49.594;8.734;2023-07-20T01:57:31;3.03;;;1.70;;
34573;SDS011;20809;49.594;8.734;2023-07-20T02:00:33;3.47;;;1.75;;
34573;SDS011;20809;49.594;8.734;2023-07-20T02:03:35;3.17;;;1.63;;
34573;SDS011;20809;49.594;8.734;2023-07-20T02:06:36;1.88;;;1.38;;
34573;SDS011;20809;49.594;8.734;2023-07-20T02:09:38;2.85;;;1.65;;
34573;SDS011;20809;49.594;8.734;2023-07-20T02:12:43;3.17;;;1.88;;
34573;SDS011;20809;49.594;8.734;2023-07-20T02:15:44;2.55;;;1.42;;
34573;SDS011;20809;49.594;8.734;2023-07-20T02:18:49;2.30;;;1.60;;
34573;SDS011;20809;49.594;8.734;2023-07-20T02:21:51;1.60;;;1.45;;
34573;SDS011;20809;49.594;8.734;2023-07-20T02:24:52;2.35;;;1.80;;
34573;SDS011;20809;49.594;8.734;2023-07-20T02:27:55;2.85;;;1.50;;
34573;SDS011;20809;49.594;8.734;2023-07-20T02:30:58;2.30;;;1.88;;
34573;SDS011;20809;49.594;8.734;2023-07-20T02:34:01;2.83;;;1.75;;
34573;SDS011;20809;49.594;8.734;2023-07-20T02:37:02;2.20;;;1.85;;
34573;SDS011;20809;49.594;8.734;2023-07-20T02:40:04;2.03;;;1.58;;
34573;SDS011;20809;49.594;8.734;2023-07-20T02:43:07;2.80;;;1.80;;
34573;SDS011;20809;49.594;8.734;2023-07-20T02:46:09;3.30;;;1.42;;
34573;SDS011;20809;49.594;8.734;2023-07-20T02:49:11;2.67;;;1.70;;
34573;SDS011;20809;49.594;8.734;2023-07-20T02:52:13;2.03;;;1.80;;
34573;SDS011;20809;49.594;8.734;2023-07-20T02:55:14;2.00;;;1.63;;
34573;SDS011;20809;49.594;8.734;2023-07-20T02:58:17;3.83;;;1.83;;
34573;SDS011;20809;49.594;8.734;2023-07-20T03:01:18;1.67;;;1.42;;
34573;SDS011;20809;49.594;8.734;2023-07-20T03:04:20;6.43;;;1.48;;
34573;SDS011;20809;49.594;8.734;2023-07-20T03:07:22;1.73;;;1.63;;
34573;SDS011;20809;49.594;8.734;2023-07-20T03:10:23;2.42;;;1.90;;
34573;SDS011;20809;49.594;8.734;2023-07-20T03:13:25;2.72;;;1.85;;
34573;SDS011;20809;49.594;8.734;2023-07-20T03:16:27;3.08;;;1.90;;
34573;SDS011;20809;49.594;8.734;2023-07-20T03:19:28;3.75;;;2.08;;
34573;SDS011;20809;49.594;8.734;2023-07-20T03:22:30;2.92;;;1.80;;
34573;SDS011;20809;49.594;8.734;2023-07-20T03:25:34;3.08;;;1.88;;
34573;SDS011;20809;49.594;8.734;2023-07-20T03:28:37;1.98;;;1.60;;
34573;SDS011;20809;49.594;8.734;2023-07-20T03:31:39;3.45;;;1.85;;
34573;SDS011;20809;49.594;8.734;2023-07-20T03:34:40;2.95;;;1.63;;
34573;SDS011;20809;49.594;8.734;2023-07-20T03:37:42;5.05;;;1.90;;
34573;SDS011;20809;49.594;8.734;2023-07-20T03:40:57;3.22;;;1.95;;
34573;SDS011;20809;49.594;8.734;2023-07-20T03:44:01;3.97;;;1.40;;
34573;SDS011;20809;49.594;8.734;2023-07-20T03:47:03;3.75;;;1.83;;
34573;SDS011;20809;49.594;8.734;2023-07-20T03:50:05;5.60;;;2.72;;
34573;SDS011;20809;49.594;8.734;2023-07-20T03:53:07;3.92;;;2.50;;
34573;SDS011;20809;49.594;8.734;2023-07-20T03:56:08;4.82;;;2.42;;
34573;SDS011;20809;49.594;8.734;2023-07-20T03:59:17;7.07;;;1.90;;
34573;SDS011;20809;49.594;8.734;2023-07-20T04:02:22;2.83;;;1.73;;
34573;SDS011;20809;49.594;8.734;2023-07-20T04:05:22;4.32;;;1.77;;
34573;SDS011;20809;49.594;8.734;2023-07-20T04:08:23;4.15;;;1.80;;
34573;SDS011;20809;49.594;8.734;2023-07-20T04:11:27;2.47;;;1.95;;
34573;SDS011;20809;49.594;8.734;2023-07-20T04:14:28;7.72;;;2.00;;
34573;SDS011;20809;49.594;8.734;2023-07-20T04:17:31;2.40;;;2.10;;
34573;SDS011;20809;49.594;8.734;2023-07-20T04:20:35;5.30;;;2.70;;
34573;SDS011;20809;49.594;8.734;2023-07-20T04:23:36;1.95;;;1.48;;
34573;SDS011;20809;49.594;8.734;2023-07-20T04:26:37;4.13;;;1.95;;
34573;SDS011;20809;49.594;8.734;2023-07-20T04:29:37;4.65;;;2.40;;
34573;SDS011;20809;49.594;8.734;2023-07-20T04:32:38;2.60;;;1.70;;
34573;SDS011;20809;49.594;8.734;2023-07-20T04:35:45;4.45;;;1.90;;
34573;SDS011;20809;49.594;8.734;2023-07-20T04:38:47;2.67;;;1.98;;
34573;SDS011;20809;49.594;8.734;2023-07-20T04:41:48;1.75;;;1.65;;
34573;SDS011;20809;49.594;8.734;2023-07-20T04:44:48;3.50;;;2.30;;
34573;SDS011;20809;49.594;8.734;2023-07-20T04:47:49;3.92;;;1.98;;
34573;SDS011;20809;49.594;8.734;2023-07-20T04:50:51;4.15;;;2.15;;
34573;SDS011;20809;49.594;8.734;2023-07-20T04:53:51;2.47;;;1.80;;
34573;SDS011;20809;49.594;8.734;2023-07-20T04:56:52;4.10;;;2.22;;
34573;SDS011;20809;49.594;8.734;2023-07-20T04:59:53;5.25;;;2.92;;
34573;SDS011;20809;49.594;8.734;2023-07-20T05:02:57;2.58;;;1.90;;
34573;SDS011;20809;49.594;8.734;2023-07-20T05:05:57;2.70;;;1.77;;
34573;SDS011;20809;49.594;8.734;2023-07-20T05:08:58;3.05;;;2.08;;
34573;SDS011;20809;49.594;8.734;2023-07-20T05:11:59;3.85;;;1.80;;
34573;SDS011;20809;49.594;8.734;2023-07-20T05:14:59;2.55;;;1.40;;
34573;SDS011;20809;49.594;8.734;2023-07-20T05:18:00;2.88;;;1.70;;
34573;SDS011;20809;49.594;8.734;2023-07-20T05:21:01;2.85;;;1.70;;
34573;SDS011;20809;49.594;8.734;2023-07-20T05:24:01;3.05;;;1.33;;
34573;SDS011;20809;49.594;8.734;2023-07-20T05:27:05;3.38;;;2.28;;
34573;SDS011;20809;49.594;8.734;2023-07-20T05:30:06;2.28;;;1.48;;
34573;SDS011;20809;49.594;8.734;2023-07-20T05:33:07;3.63;;;1.92;;
34573;SDS011;20809;49.594;8.734;2023-07-20T05:36:13;3.20;;;1.77;;
34573;SDS011;20809;49.594;8.734;2023-07-20T05:39:14;1.92;;;1.75;;
34573;SDS011;20809;49.594;8.734;2023-07-20T05:42:16;5.85;;;2.83;;
34573;SDS011;20809;49.594;8.734;2023-07-20T05:45:17;2.63;;;2.20;;
34573;SDS011;20809;49.594;8.734;2023-07-20T05:48:18;4.47;;;1.88;;
34573;SDS011;20809;49.594;8.734;2023-07-20T05:51:19;3.40;;;1.75;;
34573;SDS011;20809;49.594;8.734;2023-07-20T05:54:25;3.83;;;1.90;;
34573;SDS011;20809;49.594;8.734;2023-07-20T05:57:26;2.33;;;1.88;;
34573;SDS011;20809;49.594;8.734;2023-07-20T06:00:27;3.35;;;2.25;;
34573;SDS011;20809;49.594;8.734;2023-07-20T06:03:27;2.17;;;1.83;;
34573;SDS011;20809;49.594;8.734;2023-07-20T06:06:28;3.20;;;2.10;;
34573;SDS011;20809;49.594;8.734;2023-07-20T06:09:30;6.15;;;1.85;;
34573;SDS011;20809;49.594;8.734;2023-07-20T06:12:30;3.33;;;1.85;;
34573;SDS011;20809;49.594;8.734;2023-07-20T06:15:33;5.43;;;2.10;;
34573;SDS011;20809;49.594;8.734;2023-07-20T06:18:39;4.32;;;1.85;;
34573;SDS011;20809;49.594;8.734;2023-07-20T06:21:39;2.90;;;2.25;;
34573;SDS011;20809;49.594;8.734;2023-07-20T06:24:40;2.35;;;2.03;;
34573;SDS011;20809;49.594;8.734;2023-07-20T06:27:42;2.35;;;1.80;;
34573;SDS011;20809;49.594;8.734;2023-07-20T06:30:43;3.08;;;1.80;;
34573;SDS011;20809;49.594;8.734;2023-07-20T06:33:44;2.95;;;2.10;;
34573;SDS011;20809;49.594;8.734;2023-07-20T06:36:44;5.57;;;2.08;;
34573;SDS011;20809;49.594;8.734;2023-07-20T06:39:45;4.22;;;1.73;;
34573;SDS011;20809;49.594;8.734;2023-07-20T06:42:46;3.15;;;1.98;;
34573;SDS011;20809;49.594;8.734;2023-07-20T06:45:52;4.88;;;2.10;;
34573;SDS011;20809;49.594;8.734;2023-07-20T06:48:53;5.53;;;2.05;;
34573;SDS011;20809;49.594;8.734;2023-07-20T06:54:55;2.58;;;1.90;;
34573;SDS011;20809;49.594;8.734;2023-07-20T06:57:56;2.63;;;1.75;;
34573;SDS011;20809;49.594;8.734;2023-07-20T07:03:57;5.30;;;2.50;;
34573;SDS011;20809;49.594;8.734;2023-07-20T07:09:59;3.30;;;2.13;;
34573;SDS011;20809;49.594;8.734;2023-07-20T07:13:01;4.13;;;2.35;;
34573;SDS011;20809;49.594;8.734;2023-07-20T07:16:02;5.35;;;2.20;;
34573;SDS011;20809;49.594;8.734;2023-07-20T07:19:03;4.03;;;1.67;;
34573;SDS011;20809;49.594;8.734;2023-07-20T07:22:05;2.13;;;1.58;;
34573;SDS011;20809;49.594;8.734;2023-07-20T07:25:06;3.85;;;1.80;;
34573;SDS011;20809;49.594;8.734;2023-07-20T07:28:07;4.60;;;2.22;;
34573;SDS011;20809;49.594;8.734;2023-07-20T07:31:08;3.05;;;1.73;;
34573;SDS011;20809;49.594;8.734;2023-07-20T07:34:09;2.72;;;1.30;;
34573;SDS011;20809;49.594;8.734;2023-07-20T07:37:10;6.22;;;1.88;;
34573;SDS011;20809;49.594;8.734;2023-07-20T07:40:11;3.88;;;1.50;;
34573;SDS011;20809;49.594;8.734;2023-07-20T07:43:11;3.95;;;1.77;;
34573;SDS011;20809;49.594;8.734;2023-07-20T07:46:13;2.40;;;1.30;;
34573;SDS011;20809;49.594;8.734;2023-07-20T07:49:15;3.97;;;1.38;;
34573;SDS011;20809;49.594;8.734;2023-07-20T07:52:16;1.80;;;1.30;;
34573;SDS011;20809;49.594;8.734;2023-07-20T07:55:16;3.45;;;1.70;;
34573;SDS011;20809;49.594;8.734;2023-07-20T08:01:18;1.97;;;1.77;;
34573;SDS011;20809;49.594;8.734;2023-07-20T08:07:19;5.90;;;1.80;;
34573;SDS011;20809;49.594;8.734;2023-07-20T08:10:21;2.55;;;1.80;;
34573;SDS011;20809;49.594;8.734;2023-07-20T08:13:22;5.28;;;1.88;;
34573;SDS011;20809;49.594;8.734;2023-07-20T08:19:23;5.13;;;1.97;;
34573;SDS011;20809;49.594;8.734;2023-07-20T08:25:25;2.50;;;1.40;;
34573;SDS011;20809;49.594;8.734;2023-07-20T08:31:26;5.10;;;2.03;;
34573;SDS011;20809;49.594;8.734;2023-07-20T08:34:28;4.32;;;1.38;;
34573;SDS011;20809;49.594;8.734;2023-07-20T08:37:29;2.92;;;1.88;;
34573;SDS011;20809;49.594;8.734;2023-07-20T08:40:30;2.00;;;1.40;;
34573;SDS011;20809;49.594;8.734;2023-07-20T08:43:32;3.90;;;2.10;;
34573;SDS011;20809;49.594;8.734;2023-07-20T08:46:33;2.38;;;1.75;;
34573;SDS011;20809;49.594;8.734;2023-07-20T08:49:38;3.60;;;2.45;;
34573;SDS011;20809;49.594;8.734;2023-07-20T08:52:40;1.75;;;1.33;;
34573;SDS011;20809;49.594;8.734;2023-07-20T08:55:42;4.45;;;1.80;;
34573;SDS011;20809;49.594;8.734;2023-07-20T08:58:45;1.90;;;1.75;;
34573;SDS011;20809;49.594;8.734;2023-07-20T09:01:46;4.32;;;1.70;;
34573;SDS011;20809;49.594;8.734;2023-07-20T09:04:48;3.05;;;1.50;;
34573;SDS011;20809;49.594;8.734;2023-07-20T09:07:49;2.13;;;1.80;;
34573;SDS011;20809;49.594;8.734;2023-07-20T09:10:50;1.80;;;1.50;;
34573;SDS011;20809;49.594;8.734;2023-07-20T09:14:07;2.47;;;1.83;;
34573;SDS011;20809;49.594;8.734;2023-07-20T09:17:12;2.95;;;1.90;;
34573;SDS011;20809;49.594;8.734;2023-07-20T09:20:14;2.83;;;1.90;;
34573;SDS011;20809;49.594;8.734;2023-07-20T09:23:15;2.75;;;2.15;;
34573;SDS011;20809;49.594;8.734;2023-07-20T09:26:16;3.88;;;2.05;;
34573;SDS011;20809;49.594;8.734;2023-07-20T09:29:20;5.53;;;2.28;;
34573;SDS011;20809;49.594;8.734;2023-07-20T09:32:21;4.13;;;2.05;;
34573;SDS011;20809;49.594;8.734;2023-07-20T09:35:22;2.25;;;2.03;;
34573;SDS011;20809;49.594;8.734;2023-07-20T09:38:23;2.35;;;2.15;;
34573;SDS011;20809;49.594;8.734;2023-07-20T09:41:26;1.92;;;1.67;;
34573;SDS011;20809;49.594;8.734;2023-07-20T09:44:27;2.00;;;1.83;;
34573;SDS011;20809;49.594;8.734;2023-07-20T09:47:28;2.47;;;1.80;;
34573;SDS011;20809;49.594;8.734;2023-07-20T09:50:29;2.55;;;2.10;;
34573;SDS011;20809;49.594;8.734;2023-07-20T09:53:30;3.63;;;1.70;;
34573;SDS011;20809;49.594;8.734;2023-07-20T09:56:33;2.80;;;1.75;;
34573;SDS011;20809;49.594;8.734;2023-07-20T09:59:35;3.70;;;1.60;;
34573;SDS011;20809;49.594;8.734;2023-07-20T10:02:36;1.50;;;1.35;;
34573;SDS011;20809;49.594;8.734;2023-07-20T10:05:43;3.30;;;1.50;;
34573;SDS011;20809;49.594;8.734;2023-07-20T10:08:47;4.63;;;1.58;;
34573;SDS011;20809;49.594;8.734;2023-07-20T10:11:50;1.50;;;1.23;;
34573;SDS011;20809;49.594;8.734;2023-07-20T10:14:59;1.40;;;1.30;;
34573;SDS011;20809;49.594;8.734;2023-07-20T10:18:19;2.25;;;1.20;;
34573;SDS011;20809;49.594;8.734;2023-07-20T10:21:29;3.38;;;1.80;;
34573;SDS011;20809;49.594;8.734;2023-07-20T10:24:30;2.85;;;1.30;;
34573;SDS011;20809;49.594;8.734;2023-07-20T10:27:32;4.55;;;1.45;;
34573;SDS011;20809;49.594;8.734;2023-07-20T10:33:37;2.40;;;1.27;;
34573;SDS011;20809;49.594;8.734;2023-07-20T10:36:43;3.58;;;1.27;;
34573;SDS011;20809;49.594;8.734;2023-07-20T10:39:52;4.63;;;1.67;;
34573;SDS011;20809;49.594;8.734;2023-07-20T10:43:17;2.45;;;1.25;;
34573;SDS011;20809;49.594;8.734;2023-07-20T10:50:01;2.75;;;1.38;;
34573;SDS011;20809;49.594;8.734;2023-07-20T10:56:22;3.67;;;1.42;;
34573;SDS011;20809;49.594;8.734;2023-07-20T11:02:45;2.55;;;1.45;;
34573;SDS011;20809;49.594;8.734;2023-07-20T11:05:47;1.40;;;1.05;;
34573;SDS011;20809;49.594;8.734;2023-07-20T11:08:50;1.25;;;1.15;;
34573;SDS011;20809;49.594;8.734;2023-07-20T11:12:14;4.28;;;1.88;;
34573;SDS011;20809;49.594;8.734;2023-07-20T11:15:18;4.05;;;1.45;;
34573;SDS011;20809;49.594;8.734;2023-07-20T11:18:19;3.42;;;1.60;;
34573;SDS011;20809;49.594;8.734;2023-07-20T11:21:20;1.52;;;1.13;;
34573;SDS011;20809;49.594;8.734;2023-07-20T11:24:21;2.58;;;1.23;;
34573;SDS011;20809;49.594;8.734;2023-07-20T11:27:22;2.20;;;1.40;;
34573;SDS011;20809;49.594;8.734;2023-07-20T11:30:24;2.30;;;1.40;;
34573;SDS011;20809;49.594;8.734;2023-07-20T11:33:26;4.00;;;1.50;;
34573;SDS011;20809;49.594;8.734;2023-07-20T11:36:27;2.05;;;1.83;;
34573;SDS011;20809;49.594;8.734;2023-07-20T11:39:27;2.03;;;1.60;;
34573;SDS011;20809;49.594;8.734;2023-07-20T11:42:29;1.90;;;1.40;;
34573;SDS011;20809;49.594;8.734;2023-07-20T11:45:30;3.08;;;1.48;;
34573;SDS011;20809;49.594;8.734;2023-07-20T11:48:33;2.22;;;1.63;;
34573;SDS011;20809;49.594;8.734;2023-07-20T11:51:34;4.43;;;1.60;;
34573;SDS011;20809;49.594;8.734;2023-07-20T11:54:35;4.10;;;1.52;;
34573;SDS011;20809;49.594;8.734;2023-07-20T11:57:40;2.33;;;1.70;;
34573;SDS011;20809;49.594;8.734;2023-07-20T12:00:41;2.80;;;1.40;;
34573;SDS011;20809;49.594;8.734;2023-07-20T12:03:45;3.08;;;1.40;;
34573;SDS011;20809;49.594;8.734;2023-07-20T12:06:45;3.88;;;1.52;;
34573;SDS011;20809;49.594;8.734;2023-07-20T12:10:05;4.18;;;1.60;;
34573;SDS011;20809;49.594;8.734;2023-07-20T12:13:06;3.67;;;1.40;;
34573;SDS011;20809;49.594;8.734;2023-07-20T12:16:13;1.65;;;1.27;;
34573;SDS011;20809;49.594;8.734;2023-07-20T12:19:15;3.38;;;1.40;;
34573;SDS011;20809;49.594;8.734;2023-07-20T12:22:15;3.92;;;1.45;;
34573;SDS011;20809;49.594;8.734;2023-07-20T12:25:16;3.08;;;1.23;;
34573;SDS011;20809;49.594;8.734;2023-07-20T12:28:20;2.05;;;1.27;;
34573;SDS011;20809;49.594;8.734;2023-07-20T12:31:20;2.42;;;1.30;;
34573;SDS011;20809;49.594;8.734;2023-07-20T12:34:22;1.70;;;1.23;;
34573;SDS011;20809;49.594;8.734;2023-07-20T12:37:23;1.77;;;1.35;;
34573;SDS011;20809;49.594;8.734;2023-07-20T12:40:25;1.42;;;1.30;;
34573;SDS011;20809;49.594;8.734;2023-07-20T12:43:25;2.35;;;0.90;;
34573;SDS011;20809;49.594;8.734;2023-07-20T12:46:27;2.38;;;1.10;;
34573;SDS011;20809;49.594;8.734;2023-07-20T12:49:29;2.13;;;1.10;;
34573;SDS011;20809;49.594;8.734;2023-07-20T12:52:29;2.58;;;1.17;;
34573;SDS011;20809;49.594;8.734;2023-07-20T12:55:31;1.63;;;1.15;;
34573;SDS011;20809;49.594;8.734;2023-07-20T12:58:32;1.25;;;1.00;;
34573;SDS011;20809;49.594;8.734;2023-07-20T13:01:33;1.35;;;1.10;;
34573;SDS011;20809;49.594;8.734;2023-07-20T13:04:34;1.30;;;1.20;;
34573;SDS011;20809;49.594;8.734;2023-07-20T13:07:35;1.92;;;1.13;;
34573;SDS011;20809;49.594;8.734;2023-07-20T13:10:37;1.63;;;1.17;;
34573;SDS011;20809;49.594;8.734;2023-07-20T13:13:38;1.92;;;1.10;;
34573;SDS011;20809;49.594;8.734;2023-07-20T13:16:39;1.95;;;1.20;;
34573;SDS011;20809;49.594;8.734;2023-07-20T13:19:40;1.63;;;1.15;;
34573;SDS011;20809;49.594;8.734;2023-07-20T13:22:41;1.80;;;1.30;;
34573;SDS011;20809;49.594;8.734;2023-07-20T13:25:42;2.63;;;1.27;;
34573;SDS011;20809;49.594;8.734;2023-07-20T13:28:42;2.33;;;1.40;;
34573;SDS011;20809;49.594;8.734;2023-07-20T13:31:43;1.25;;;1.05;;
34573;SDS011;20809;49.594;8.734;2023-07-20T13:34:44;1.58;;;1.25;;
34573;SDS011;20809;49.594;8.734;2023-07-20T13:37:45;2.60;;;1.20;;
34573;SDS011;20809;49.594;8.734;2023-07-20T13:40:46;3.58;;;1.40;;
34573;SDS011;20809;49.594;8.734;2023-07-20T13:43:47;1.30;;;1.05;;
34573;SDS011;20809;49.594;8.734;2023-07-20T13:46:48;8.07;;;1.88;;
34573;SDS011;20809;49.594;8.734;2023-07-20T13:49:49;1.60;;;1.20;;
34573;SDS011;20809;49.594;8.734;2023-07-20T13:52:50;1.58;;;1.20;;
34573;SDS011;20809;49.594;8.734;2023-07-20T13:55:51;1.40;;;1.27;;
34573;SDS011;20809;49.594;8.734;2023-07-20T13:58:52;2.10;;;1.33;;
34573;SDS011;20809;49.594;8.734;2023-07-20T14:01:53;1.30;;;1.20;;
34573;SDS011;20809;49.594;8.734;2023-07-20T14:04:54;1.98;;;1.10;;
34573;SDS011;20809;49.594;8.734;2023-07-20T14:07:55;2.28;;;1.30;;
34573;SDS011;20809;49.594;8.734;2023-07-20T14:10:56;3.63;;;1.33;;
34573;SDS011;20809;49.594;8.734;2023-07-20T14:13:57;2.03;;;1.27;;
34573;SDS011;20809;49.594;8.734;2023-07-20T14:16:58;1.48;;;1.23;;
34573;SDS011;20809;49.594;8.734;2023-07-20T14:19:59;2.22;;;1.38;;
34573;SDS011;20809;49.594;8.734;2023-07-20T14:23:00;2.65;;;1.20;;
34573;SDS011;20809;49.594;8.734;2023-07-20T14:26:01;4.15;;;1.42;;
34573;SDS011;20809;49.594;8.734;2023-07-20T14:29:05;2.78;;;1.30;;
34573;SDS011;20809;49.594;8.734;2023-07-20T14:35:07;2.00;;;1.20;;
34573;SDS011;20809;49.594;8.734;2023-07-20T14:38:09;1.80;;;1.42;;
34573;SDS011;20809;49.594;8.734;2023-07-20T14:44:10;1.75;;;1.23;;
34573;SDS011;20809;49.594;8.734;2023-07-20T14:50:11;3.57;;;1.20;;
34573;SDS011;20809;49.594;8.734;2023-07-20T14:53:15;4.28;;;1.30;;
34573;SDS011;20809;49.594;8.734;2023-07-20T14:59:16;1.57;;;1.10;;
34573;SDS011;20809;49.594;8.734;2023-07-20T15:05:22;2.80;;;1.27;;
34573;SDS011;20809;49.594;8.734;2023-07-20T15:08:23;2.67;;;1.30;;
34573;SDS011;20809;49.594;8.734;2023-07-20T15:14:24;1.25;;;1.00;;
34573;SDS011;20809;49.594;8.734;2023-07-20T15:20:25;1.33;;;1.20;;
34573;SDS011;20809;49.594;8.734;2023-07-20T15:26:27;2.13;;;1.10;;
34573;SDS011;20809;49.594;8.734;2023-07-20T15:32:28;3.33;;;1.20;;
34573;SDS011;20809;49.594;8.734;2023-07-20T15:38:30;6.10;;;1.17;;
34573;SDS011;20809;49.594;8.734;2023-07-20T15:41:31;6.22;;;1.23;;
34573;SDS011;20809;49.594;8.734;2023-07-20T15:47:32;1.63;;;1.37;;
34573;SDS011;20809;49.594;8.734;2023-07-20T15:50:33;4.00;;;1.00;;
34573;SDS011;20809;49.594;8.734;2023-07-20T15:53:33;1.25;;;1.08;;
34573;SDS011;20809;49.594;8.734;2023-07-20T15:59:35;2.70;;;1.30;;
34573;SDS011;20809;49.594;8.734;2023-07-20T16:02:37;1.33;;;1.23;;
34573;SDS011;20809;49.594;8.734;2023-07-20T16:08:39;2.83;;;1.17;;
34573;SDS011;20809;49.594;8.734;2023-07-20T16:11:40;4.03;;;1.10;;
34573;SDS011;20809;49.594;8.734;2023-07-20T16:14:41;1.90;;;1.27;;
34573;SDS011;20809;49.594;8.734;2023-07-20T16:17:42;4.82;;;1.38;;
34573;SDS011;20809;49.594;8.734;2023-07-20T16:20:42;5.50;;;1.50;;
34573;SDS011;20809;49.594;8.734;2023-07-20T16:23:44;1.65;;;1.20;;
34573;SDS011;20809;49.594;8.734;2023-07-20T16:26:45;1.30;;;1.20;;
34573;SDS011;20809;49.594;8.734;2023-07-20T16:32:46;3.43;;;1.30;;
34573;SDS011;20809;49.594;8.734;2023-07-20T16:35:47;3.10;;;1.27;;
34573;SDS011;20809;49.594;8.734;2023-07-20T16:38:48;2.97;;;1.48;;
34573;SDS011;20809;49.594;8.734;2023-07-20T16:41:48;2.25;;;1.15;;
34573;SDS011;20809;49.594;8.734;2023-07-20T16:44:52;1.73;;;1.20;;
34573;SDS011;20809;49.594;8.734;2023-07-20T16:47:53;1.95;;;1.30;;
34573;SDS011;20809;49.594;8.734;2023-07-20T16:50:54;1.65;;;1.10;;
34573;SDS011;20809;49.594;8.734;2023-07-20T16:53:54;13.02;;;1.55;;
34573;SDS011;20809;49.594;8.734;2023-07-20T16:56:55;1.70;;;1.40;;
34573;SDS011;20809;49.594;8.734;2023-07-20T16:59:56;1.92;;;1.30;;
34573;SDS011;20809;49.594;8.734;2023-07-20T17:02:57;3.35;;;1.48;;
34573;SDS011;20809;49.594;8.734;2023-07-20T17:05:58;2.10;;;1.25;;
34573;SDS011;20809;49.594;8.734;2023-07-20T17:08:59;1.38;;;1.25;;
34573;SDS011;20809;49.594;8.734;2023-07-20T17:12:01;1.25;;;1.15;;
34573;SDS011;20809;49.594;8.734;2023-07-20T17:18:02;2.97;;;1.37;;
34573;SDS011;20809;49.594;8.734;2023-07-20T17:27:05;3.70;;;1.50;;
34573;SDS011;20809;49.594;8.734;2023-07-20T17:30:06;2.25;;;1.30;;
34573;SDS011;20809;49.594;8.734;2023-07-20T17:33:08;3.00;;;1.48;;
34573;SDS011;20809;49.594;8.734;2023-07-20T17:36:08;3.20;;;1.35;;
34573;SDS011;20809;49.594;8.734;2023-07-20T17:42:10;1.50;;;1.00;;
34573;SDS011;20809;49.594;8.734;2023-07-20T17:45:10;1.40;;;1.30;;
34573;SDS011;20809;49.594;8.734;2023-07-20T17:51:12;2.50;;;1.30;;
34573;SDS011;20809;49.594;8.734;2023-07-20T17:57:13;2.93;;;1.47;;
34573;SDS011;20809;49.594;8.734;2023-07-20T18:03:15;2.65;;;1.88;;
34573;SDS011;20809;49.594;8.734;2023-07-20T18:09:16;1.43;;;1.20;;
34573;SDS011;20809;49.594;8.734;2023-07-20T18:15:18;3.97;;;1.50;;
34573;SDS011;20809;49.594;8.734;2023-07-20T18:21:19;1.47;;;1.30;;
34573;SDS011;20809;49.594;8.734;2023-07-20T18:24:20;1.42;;;1.23;;
34573;SDS011;20809;49.594;8.734;2023-07-20T18:30:21;2.33;;;1.37;;
34573;SDS011;20809;49.594;8.734;2023-07-20T18:33:22;2.38;;;1.30;;
34573;SDS011;20809;49.594;8.734;2023-07-20T18:39:23;1.43;;;1.30;;
34573;SDS011;20809;49.594;8.734;2023-07-20T18:45:24;2.10;;;1.03;;
34573;SDS011;20809;49.594;8.734;2023-07-20T18:48:25;1.55;;;1.42;;
34573;SDS011;20809;49.594;8.734;2023-07-20T18:51:25;2.97;;;1.20;;
34573;SDS011;20809;49.594;8.734;2023-07-20T18:54:26;4.25;;;1.45;;
34573;SDS011;20809;49.594;8.734;2023-07-20T19:00:28;1.80;;;1.33;;
34573;SDS011;20809;49.594;8.734;2023-07-20T19:03:29;4.47;;;1.75;;
34573;SDS011;20809;49.594;8.734;2023-07-20T19:06:30;1.30;;;1.20;;
34573;SDS011;20809;49.594;8.734;2023-07-20T19:09:34;3.10;;;1.55;;
34573;SDS011;20809;49.594;8.734;2023-07-20T19:12:36;3.45;;;1.67;;
34573;SDS011;20809;49.594;8.734;2023-07-20T19:15:56;1.40;;;1.30;;
34573;SDS011;20809;49.594;8.734;2023-07-20T19:18:59;2.25;;;1.17;;
34573;SDS011;20809;49.594;8.734;2023-07-20T19:22:01;1.90;;;1.42;;
34573;SDS011;20809;49.594;8.734;2023-07-20T19:25:02;1.52;;;1.30;;
34573;SDS011;20809;49.594;8.734;2023-07-20T19:28:06;6.78;;;1.60;;
34573;SDS011;20809;49.594;8.734;2023-07-20T19:31:08;4.72;;;1.27;;
34573;SDS011;20809;49.594;8.734;2023-07-20T19:34:10;3.65;;;1.65;;
34573;SDS011;20809;49.594;8.734;2023-07-20T19:37:15;4.30;;;1.67;;
34573;SDS011;20809;49.594;8.734;2023-07-20T19:40:17;2.75;;;1.42;;
34573;SDS011;20809;49.594;8.734;2023-07-20T19:43:19;1.65;;;1.20;;
34573;SDS011;20809;49.594;8.734;2023-07-20T19:46:24;3.38;;;2.10;;
34573;SDS011;20809;49.594;8.734;2023-07-20T19:49:26;1.70;;;1.23;;
34573;SDS011;20809;49.594;8.734;2023-07-20T19:52:29;5.43;;;1.45;;
34573;SDS011;20809;49.594;8.734;2023-07-20T19:55:32;1.42;;;1.20;;
34573;SDS011;20809;49.594;8.734;2023-07-20T19:58:34;4.15;;;1.42;;
34573;SDS011;20809;49.594;8.734;2023-07-20T20:01:40;2.42;;;1.25;;
34573;SDS011;20809;49.594;8.734;2023-07-20T20:04:42;1.33;;;1.23;;
34573;SDS011;20809;49.594;8.734;2023-07-20T20:07:43;3.10;;;1.73;;
34573;SDS011;20809;49.594;8.734;2023-07-20T20:10:46;2.22;;;1.30;;
34573;SDS011;20809;49.594;8.734;2023-07-20T20:13:48;2.75;;;1.10;;
34573;SDS011;20809;49.594;8.734;2023-07-20T20:16:50;2.05;;;1.20;;
34573;SDS011;20809;49.594;8.734;2023-07-20T20:19:52;1.30;;;1.20;;
34573;SDS011;20809;49.594;8.734;2023-07-20T20:22:54;1.20;;;1.10;;
34573;SDS011;20809;49.594;8.734;2023-07-20T20:25:59;1.45;;;1.35;;